sensor_id;sensor_type;location;lat;lon;timestamp;pressure;altitude;pressure_sealevel;temperature;humidity
37170;BME280;23062;13.952;100.608;2023-05-02T00:00:47;1010.00;;;31.41;65.94
37170;BME280;23062;13.952;100.608;2023-05-02T00:05:13;1010.09;;;31.38;65.72
37170;BME280;23062;13.952;100.608;2023-05-02T00:09:39;1010.14;;;31.41;65.42
37170;BME280;23062;13.952;100.608;2023-05-02T00:14:05;1010.19;;;31.44;65.40
37170;BME280;23062;13.952;100.608;2023-05-02T00:18:30;1010.22;;;31.46;65.37
37170;BME280;23062;13.952;100.608;2023-05-02T00:22:56;1010.24;;;31.51;65.19
37170;BME280;23062;13.952;100.608;2023-05-02T00:27:21;1010.28;;;31.57;65.27
37170;BME280;23062;13.952;100.608;2023-05-02T00:31:47;1010.30;;;31.58;64.99
37170;BME280;23062;13.952;100.608;2023-05-02T00:36:18;1010.36;;;31.58;65.30
37170;BME280;23062;13.952;100.608;2023-05-02T00:40:45;1010.49;;;31.60;65.13
37170;BME280;23062;13.952;100.608;2023-05-02T00:45:13;1010.52;;;31.63;65.17
37170;BME280;23062;13.952;100.608;2023-05-02T00:49:45;1010.63;;;31.61;65.32
37170;BME280;23062;13.952;100.608;2023-05-02T00:54:12;1010.73;;;31.65;65.21
37170;BME280;23062;13.952;100.608;2023-05-02T00:58:43;1010.74;;;31.68;64.97
37170;BME280;23062;13.952;100.608;2023-05-02T01:03:24;1010.78;;;31.70;65.07
37170;BME280;23062;13.952;100.608;2023-05-02T01:08:07;1010.89;;;31.73;65.03
37170;BME280;23062;13.952;100.608;2023-05-02T01:12:53;1010.97;;;31.78;64.99
37170;BME280;23062;13.952;100.608;2023-05-02T01:17:19;1011.04;;;31.81;64.97
37170;BME280;23062;13.952;100.608;2023-05-02T01:21:50;1011.12;;;31.83;65.04
37170;BME280;23062;13.952;100.608;2023-05-02T01:31:03;1011.25;;;31.90;64.80
37170;BME280;23062;13.952;100.608;2023-05-02T01:35:31;1011.27;;;31.83;65.84
37170;BME280;23062;13.952;100.608;2023-05-02T01:39:59;1011.25;;;31.70;66.80
37170;BME280;23062;13.952;100.608;2023-05-02T01:44:27;1011.22;;;31.68;67.04
37170;BME280;23062;13.952;100.608;2023-05-02T01:48:55;1011.21;;;31.73;66.92
37170;BME280;23062;13.952;100.608;2023-05-02T01:53:23;1011.28;;;31.76;67.15
37170;BME280;23062;13.952;100.608;2023-05-02T01:57:50;1011.23;;;31.79;66.98
37170;BME280;23062;13.952;100.608;2023-05-02T02:02:17;1011.15;;;31.84;67.00
37170;BME280;23062;13.952;100.608;2023-05-02T02:06:57;1011.17;;;31.85;66.73
37170;BME280;23062;13.952;100.608;2023-05-02T02:11:30;1011.15;;;31.89;66.61
37170;BME280;23062;13.952;100.608;2023-05-02T02:15:56;1011.22;;;31.92;66.55
37170;BME280;23062;13.952;100.608;2023-05-02T02:20:22;1011.26;;;31.94;66.28
37170;BME280;23062;13.952;100.608;2023-05-02T02:24:49;1011.28;;;31.97;66.17
37170;BME280;23062;13.952;100.608;2023-05-02T02:29:15;1011.25;;;32.00;66.33
37170;BME280;23062;13.952;100.608;2023-05-02T02:33:42;1011.14;;;32.04;65.92
37170;BME280;23062;13.952;100.608;2023-05-02T02:38:10;1011.19;;;32.09;65.93
37170;BME280;23062;13.952;100.608;2023-05-02T02:42:44;1011.22;;;32.13;65.93
37170;BME280;23062;13.952;100.608;2023-05-02T02:47:18;1011.18;;;32.13;65.80
37170;BME280;23062;13.952;100.608;2023-05-02T02:51:49;1011.19;;;32.17;65.32
37170;BME280;23062;13.952;100.608;2023-05-02T02:56:19;1011.22;;;32.23;64.97
37170;BME280;23062;13.952;100.608;2023-05-02T03:00:42;1011.20;;;32.26;64.71
37170;BME280;23062;13.952;100.608;2023-05-02T03:05:10;1011.26;;;32.27;64.97
37170;BME280;23062;13.952;100.608;2023-05-02T03:09:43;1011.21;;;32.29;64.84
37170;BME280;23062;13.952;100.608;2023-05-02T03:14:09;1011.18;;;32.29;64.56
37170;BME280;23062;13.952;100.608;2023-05-02T03:18:34;1011.16;;;32.31;64.36
37170;BME280;23062;13.952;100.608;2023-05-02T03:23:01;1011.12;;;32.35;64.20
37170;BME280;23062;13.952;100.608;2023-05-02T03:27:28;1011.14;;;32.38;64.09
37170;BME280;23062;13.952;100.608;2023-05-02T03:31:55;1011.15;;;32.47;63.47
37170;BME280;23062;13.952;100.608;2023-05-02T03:36:28;1011.09;;;32.47;63.26
37170;BME280;23062;13.952;100.608;2023-05-02T03:40:57;1011.07;;;32.49;63.25
37170;BME280;23062;13.952;100.608;2023-05-02T03:45:23;1011.03;;;32.53;62.53
37170;BME280;23062;13.952;100.608;2023-05-02T03:49:48;1011.03;;;32.56;62.25
37170;BME280;23062;13.952;100.608;2023-05-02T03:54:17;1010.95;;;32.59;61.70
37170;BME280;23062;13.952;100.608;2023-05-02T03:58:42;1010.94;;;32.57;61.46
37170;BME280;23062;13.952;100.608;2023-05-02T04:03:08;1010.89;;;32.55;61.59
37170;BME280;23062;13.952;100.608;2023-05-02T04:07:34;1010.85;;;32.55;61.70
37170;BME280;23062;13.952;100.608;2023-05-02T04:12:00;1010.80;;;32.57;61.38
37170;BME280;23062;13.952;100.608;2023-05-02T04:16:26;1010.75;;;32.57;61.17
37170;BME280;23062;13.952;100.608;2023-05-02T04:20:52;1010.67;;;32.56;60.73
37170;BME280;23062;13.952;100.608;2023-05-02T04:25:18;1010.59;;;32.60;60.43
37170;BME280;23062;13.952;100.608;2023-05-02T04:29:46;1010.53;;;32.63;60.45
37170;BME280;23062;13.952;100.608;2023-05-02T04:34:14;1010.53;;;32.70;59.99
37170;BME280;23062;13.952;100.608;2023-05-02T04:38:40;1010.43;;;32.72;59.93
37170;BME280;23062;13.952;100.608;2023-05-02T04:43:05;1010.31;;;32.68;59.77
37170;BME280;23062;13.952;100.608;2023-05-02T04:47:31;1010.22;;;32.71;59.35
37170;BME280;23062;13.952;100.608;2023-05-02T04:51:57;1010.05;;;32.72;59.54
37170;BME280;23062;13.952;100.608;2023-05-02T04:56:23;1009.88;;;32.70;59.49
37170;BME280;23062;13.952;100.608;2023-05-02T05:00:55;1009.88;;;32.74;59.49
37170;BME280;23062;13.952;100.608;2023-05-02T05:05:20;1009.85;;;32.79;58.47
37170;BME280;23062;13.952;100.608;2023-05-02T05:09:46;1009.74;;;32.78;58.69
37170;BME280;23062;13.952;100.608;2023-05-02T05:14:12;1009.74;;;32.82;58.28
37170;BME280;23062;13.952;100.608;2023-05-02T05:18:37;1009.67;;;32.84;58.53
37170;BME280;23062;13.952;100.608;2023-05-02T05:23:06;1009.41;;;32.84;59.22
37170;BME280;23062;13.952;100.608;2023-05-02T05:27:32;1009.43;;;32.84;59.37
37170;BME280;23062;13.952;100.608;2023-05-02T05:31:58;1009.52;;;32.84;59.70
37170;BME280;23062;13.952;100.608;2023-05-02T05:36:23;1009.47;;;32.83;60.01
37170;BME280;23062;13.952;100.608;2023-05-02T05:40:50;1009.38;;;32.81;59.46
37170;BME280;23062;13.952;100.608;2023-05-02T05:45:16;1009.33;;;32.70;58.93
37170;BME280;23062;13.952;100.608;2023-05-02T05:49:45;1009.45;;;32.70;58.63
37170;BME280;23062;13.952;100.608;2023-05-02T05:54:12;1009.38;;;32.66;58.69
37170;BME280;23062;13.952;100.608;2023-05-02T05:58:38;1009.27;;;32.65;58.53
37170;BME280;23062;13.952;100.608;2023-05-02T06:03:04;1009.15;;;32.62;58.69
37170;BME280;23062;13.952;100.608;2023-05-02T06:07:30;1009.11;;;32.62;58.75
37170;BME280;23062;13.952;100.608;2023-05-02T06:11:56;1009.05;;;32.57;58.63
37170;BME280;23062;13.952;100.608;2023-05-02T06:16:23;1008.99;;;32.57;58.69
37170;BME280;23062;13.952;100.608;2023-05-02T06:20:49;1008.95;;;32.57;58.61
37170;BME280;23062;13.952;100.608;2023-05-02T06:25:18;1008.82;;;32.55;58.67
37170;BME280;23062;13.952;100.608;2023-05-02T06:29:45;1008.68;;;32.55;58.82
37170;BME280;23062;13.952;100.608;2023-05-02T06:34:13;1008.45;;;32.52;58.96
37170;BME280;23062;13.952;100.608;2023-05-02T06:38:41;1008.29;;;32.50;59.14
37170;BME280;23062;13.952;100.608;2023-05-02T06:43:10;1008.08;;;32.53;59.28
37170;BME280;23062;13.952;100.608;2023-05-02T06:47:35;1008.04;;;32.53;59.44
37170;BME280;23062;13.952;100.608;2023-05-02T06:52:01;1008.02;;;32.54;59.56
37170;BME280;23062;13.952;100.608;2023-05-02T06:56:27;1007.96;;;32.52;59.81
37170;BME280;23062;13.952;100.608;2023-05-02T07:00:56;1008.02;;;32.54;59.59
37170;BME280;23062;13.952;100.608;2023-05-02T07:05:22;1007.85;;;32.53;59.48
37170;BME280;23062;13.952;100.608;2023-05-02T07:09:52;1007.87;;;32.48;59.63
37170;BME280;23062;13.952;100.608;2023-05-02T07:14:24;1007.83;;;32.48;59.74
37170;BME280;23062;13.952;100.608;2023-05-02T07:18:58;1007.75;;;32.51;59.91
37170;BME280;23062;13.952;100.608;2023-05-02T07:23:24;1007.61;;;32.52;59.98
37170;BME280;23062;13.952;100.608;2023-05-02T07:27:50;1007.57;;;32.53;59.92
37170;BME280;23062;13.952;100.608;2023-05-02T07:32:16;1007.46;;;32.55;59.89
37170;BME280;23062;13.952;100.608;2023-05-02T07:36:49;1007.40;;;32.53;60.03
37170;BME280;23062;13.952;100.608;2023-05-02T07:41:17;1007.32;;;32.52;60.09
37170;BME280;23062;13.952;100.608;2023-05-02T07:45:47;1007.19;;;32.55;60.29
37170;BME280;23062;13.952;100.608;2023-05-02T07:50:12;1007.15;;;32.56;60.55
37170;BME280;23062;13.952;100.608;2023-05-02T07:54:38;1007.16;;;32.59;60.78
37170;BME280;23062;13.952;100.608;2023-05-02T07:59:06;1007.00;;;32.57;60.97
37170;BME280;23062;13.952;100.608;2023-05-02T08:03:34;1006.85;;;32.62;60.88
37170;BME280;23062;13.952;100.608;2023-05-02T08:08:03;1006.71;;;32.62;60.98
37170;BME280;23062;13.952;100.608;2023-05-02T08:12:29;1006.66;;;32.63;60.96
37170;BME280;23062;13.952;100.608;2023-05-02T08:16:55;1006.64;;;32.63;60.85
37170;BME280;23062;13.952;100.608;2023-05-02T08:21:22;1006.66;;;32.64;60.73
37170;BME280;23062;13.952;100.608;2023-05-02T08:25:48;1006.84;;;32.63;60.77
37170;BME280;23062;13.952;100.608;2023-05-02T08:30:13;1006.89;;;32.64;60.67
37170;BME280;23062;13.952;100.608;2023-05-02T08:34:39;1006.82;;;32.65;60.74
37170;BME280;23062;13.952;100.608;2023-05-02T08:39:12;1006.70;;;32.64;60.75
37170;BME280;23062;13.952;100.608;2023-05-02T08:43:39;1006.72;;;32.65;60.78
37170;BME280;23062;13.952;100.608;2023-05-02T08:48:09;1006.69;;;32.68;60.76
37170;BME280;23062;13.952;100.608;2023-05-02T08:52:36;1006.56;;;32.65;60.94
37170;BME280;23062;13.952;100.608;2023-05-02T08:57:03;1006.57;;;32.68;60.85
37170;BME280;23062;13.952;100.608;2023-05-02T09:01:31;1006.80;;;32.71;60.80
37170;BME280;23062;13.952;100.608;2023-05-02T09:06:17;1006.80;;;32.70;60.99
37170;BME280;23062;13.952;100.608;2023-05-02T09:10:44;1006.46;;;32.68;60.94
37170;BME280;23062;13.952;100.608;2023-05-02T09:15:18;1006.18;;;32.69;60.86
37170;BME280;23062;13.952;100.608;2023-05-02T09:19:44;1006.19;;;32.71;60.73
37170;BME280;23062;13.952;100.608;2023-05-02T09:24:21;1006.12;;;32.72;60.57
37170;BME280;23062;13.952;100.608;2023-05-02T09:28:52;1006.27;;;32.73;60.56
37170;BME280;23062;13.952;100.608;2023-05-02T09:33:26;1006.30;;;32.73;60.50
37170;BME280;23062;13.952;100.608;2023-05-02T09:37:56;1006.28;;;32.75;60.41
37170;BME280;23062;13.952;100.608;2023-05-02T09:42:29;1006.18;;;32.74;60.42
37170;BME280;23062;13.952;100.608;2023-05-02T09:46:54;1006.00;;;32.77;60.14
37170;BME280;23062;13.952;100.608;2023-05-02T09:51:23;1006.03;;;32.78;60.50
37170;BME280;23062;13.952;100.608;2023-05-02T09:56:00;1006.01;;;32.82;60.32
37170;BME280;23062;13.952;100.608;2023-05-02T10:00:43;1006.18;;;32.86;60.08
37170;BME280;23062;13.952;100.608;2023-05-02T10:05:11;1006.58;;;32.87;59.98
37170;BME280;23062;13.952;100.608;2023-05-02T10:09:42;1006.91;;;32.88;59.65
37170;BME280;23062;13.952;100.608;2023-05-02T10:14:11;1007.19;;;32.89;59.49
37170;BME280;23062;13.952;100.608;2023-05-02T10:23:30;1007.51;;;32.85;60.24
37170;BME280;23062;13.952;100.608;2023-05-02T10:27:56;1007.30;;;32.89;60.40
37170;BME280;23062;13.952;100.608;2023-05-02T10:32:27;1007.22;;;32.89;60.76
37170;BME280;23062;13.952;100.608;2023-05-02T10:36:54;1007.40;;;32.90;60.83
37170;BME280;23062;13.952;100.608;2023-05-02T10:41:28;1007.70;;;32.90;60.99
37170;BME280;23062;13.952;100.608;2023-05-02T10:45:51;1007.81;;;32.89;61.34
37170;BME280;23062;13.952;100.608;2023-05-02T10:50:20;1008.43;;;32.94;61.35
37170;BME280;23062;13.952;100.608;2023-05-02T10:54:46;1008.25;;;32.43;57.35
37170;BME280;23062;13.952;100.608;2023-05-02T10:59:28;1008.48;;;32.35;56.89
37170;BME280;23062;13.952;100.608;2023-05-02T11:04:02;1008.47;;;32.28;56.74
37170;BME280;23062;13.952;100.608;2023-05-02T11:08:29;1008.25;;;32.14;56.38
37170;BME280;23062;13.952;100.608;2023-05-02T11:12:58;1008.34;;;32.08;55.93
37170;BME280;23062;13.952;100.608;2023-05-02T11:17:26;1008.27;;;32.07;57.95
37170;BME280;23062;13.952;100.608;2023-05-02T11:21:53;1008.05;;;32.06;59.73
37170;BME280;23062;13.952;100.608;2023-05-02T11:26:23;1007.88;;;31.86;60.48
37170;BME280;23062;13.952;100.608;2023-05-02T11:30:49;1007.96;;;31.75;61.05
37170;BME280;23062;13.952;100.608;2023-05-02T11:35:19;1008.05;;;31.73;61.20
37170;BME280;23062;13.952;100.608;2023-05-02T11:39:48;1008.30;;;31.54;61.15
37170;BME280;23062;13.952;100.608;2023-05-02T11:44:15;1008.30;;;31.62;61.30
37170;BME280;23062;13.952;100.608;2023-05-02T11:48:43;1008.40;;;31.64;61.46
37170;BME280;23062;13.952;100.608;2023-05-02T11:53:12;1008.41;;;31.58;61.76
37170;BME280;23062;13.952;100.608;2023-05-02T11:57:39;1008.34;;;31.61;61.85
37170;BME280;23062;13.952;100.608;2023-05-02T12:02:09;1008.36;;;31.67;61.66
37170;BME280;23062;13.952;100.608;2023-05-02T12:06:35;1008.32;;;31.66;61.59
37170;BME280;23062;13.952;100.608;2023-05-02T12:11:02;1008.37;;;31.63;61.49
37170;BME280;23062;13.952;100.608;2023-05-02T12:15:27;1008.23;;;31.64;61.16
37170;BME280;23062;13.952;100.608;2023-05-02T12:19:59;1008.22;;;31.61;61.15
37170;BME280;23062;13.952;100.608;2023-05-02T12:24:32;1008.29;;;31.61;60.98
37170;BME280;23062;13.952;100.608;2023-05-02T12:29:03;1008.34;;;31.70;61.05
37170;BME280;23062;13.952;100.608;2023-05-02T12:33:34;1008.36;;;31.75;60.88
37170;BME280;23062;13.952;100.608;2023-05-02T12:38:11;1008.35;;;31.73;60.56
37170;BME280;23062;13.952;100.608;2023-05-02T12:42:38;1008.44;;;31.69;60.48
37170;BME280;23062;13.952;100.608;2023-05-02T12:47:04;1008.43;;;31.71;60.41
37170;BME280;23062;13.952;100.608;2023-05-02T12:51:30;1008.43;;;31.76;60.33
37170;BME280;23062;13.952;100.608;2023-05-02T12:56:03;1008.42;;;31.72;60.32
37170;BME280;23062;13.952;100.608;2023-05-02T13:00:31;1008.38;;;31.76;60.29
37170;BME280;23062;13.952;100.608;2023-05-02T13:04:56;1008.36;;;31.73;60.37
37170;BME280;23062;13.952;100.608;2023-05-02T13:09:22;1008.34;;;31.70;60.42
37170;BME280;23062;13.952;100.608;2023-05-02T13:13:48;1008.44;;;31.73;60.61
37170;BME280;23062;13.952;100.608;2023-05-02T13:18:20;1008.49;;;31.77;60.65
37170;BME280;23062;13.952;100.608;2023-05-02T13:22:46;1008.50;;;31.80;60.85
37170;BME280;23062;13.952;100.608;2023-05-02T13:27:11;1008.64;;;31.83;60.95
37170;BME280;23062;13.952;100.608;2023-05-02T13:31:37;1008.68;;;31.86;61.09
37170;BME280;23062;13.952;100.608;2023-05-02T13:36:04;1008.76;;;31.83;61.52
37170;BME280;23062;13.952;100.608;2023-05-02T13:40:31;1009.00;;;31.86;61.93
37170;BME280;23062;13.952;100.608;2023-05-02T13:44:58;1009.14;;;31.88;62.23
37170;BME280;23062;13.952;100.608;2023-05-02T13:49:26;1009.28;;;31.86;62.60
37170;BME280;23062;13.952;100.608;2023-05-02T13:53:56;1009.28;;;31.90;62.89
37170;BME280;23062;13.952;100.608;2023-05-02T13:58:22;1009.42;;;31.87;63.12
37170;BME280;23062;13.952;100.608;2023-05-02T14:02:51;1009.49;;;31.90;63.13
37170;BME280;23062;13.952;100.608;2023-05-02T14:07:17;1009.65;;;31.88;63.26
37170;BME280;23062;13.952;100.608;2023-05-02T14:11:43;1009.86;;;31.88;63.26
37170;BME280;23062;13.952;100.608;2023-05-02T14:16:10;1009.98;;;31.90;62.97
37170;BME280;23062;13.952;100.608;2023-05-02T14:20:35;1010.03;;;31.88;62.89
37170;BME280;23062;13.952;100.608;2023-05-02T14:25:04;1010.20;;;31.91;63.05
37170;BME280;23062;13.952;100.608;2023-05-02T14:29:30;1010.26;;;31.92;63.25
37170;BME280;23062;13.952;100.608;2023-05-02T14:33:56;1010.34;;;31.92;63.21
37170;BME280;23062;13.952;100.608;2023-05-02T14:38:26;1010.43;;;31.95;63.07
37170;BME280;23062;13.952;100.608;2023-05-02T14:42:52;1010.50;;;31.94;63.22
37170;BME280;23062;13.952;100.608;2023-05-02T14:47:19;1010.58;;;31.92;63.36
37170;BME280;23062;13.952;100.608;2023-05-02T14:51:45;1010.67;;;31.91;63.27
37170;BME280;23062;13.952;100.608;2023-05-02T14:56:12;1010.77;;;31.94;63.09
37170;BME280;23062;13.952;100.608;2023-05-02T15:00:39;1010.82;;;31.94;63.02
37170;BME280;23062;13.952;100.608;2023-05-02T15:05:09;1010.86;;;32.02;62.84
37170;BME280;23062;13.952;100.608;2023-05-02T15:09:36;1010.95;;;32.18;62.03
37170;BME280;23062;13.952;100.608;2023-05-02T15:14:02;1010.92;;;32.26;61.91
37170;BME280;23062;13.952;100.608;2023-05-02T15:18:36;1010.97;;;32.30;61.87
37170;BME280;23062;13.952;100.608;2023-05-02T15:23:06;1011.00;;;32.31;61.68
37170;BME280;23062;13.952;100.608;2023-05-02T15:27:32;1010.95;;;32.35;61.55
37170;BME280;23062;13.952;100.608;2023-05-02T15:31:58;1010.89;;;32.37;61.71
37170;BME280;23062;13.952;100.608;2023-05-02T15:36:27;1010.87;;;32.38;61.65
37170;BME280;23062;13.952;100.608;2023-05-02T15:40:55;1010.97;;;32.40;61.54
37170;BME280;23062;13.952;100.608;2023-05-02T15:45:21;1011.03;;;32.40;61.44
37170;BME280;23062;13.952;100.608;2023-05-02T15:49:47;1011.04;;;32.40;61.41
37170;BME280;23062;13.952;100.608;2023-05-02T15:54:14;1011.00;;;32.40;61.50
37170;BME280;23062;13.952;100.608;2023-05-02T15:58:40;1010.90;;;32.41;61.47
37170;BME280;23062;13.952;100.608;2023-05-02T16:03:06;1010.84;;;32.43;61.62
37170;BME280;23062;13.952;100.608;2023-05-02T16:07:31;1010.77;;;32.44;61.74
37170;BME280;23062;13.952;100.608;2023-05-02T16:12:01;1010.73;;;32.43;61.80
37170;BME280;23062;13.952;100.608;2023-05-02T16:16:28;1010.65;;;32.43;61.81
37170;BME280;23062;13.952;100.608;2023-05-02T16:20:55;1010.66;;;32.44;61.82
37170;BME280;23062;13.952;100.608;2023-05-02T16:25:21;1010.67;;;32.44;61.78
37170;BME280;23062;13.952;100.608;2023-05-02T16:29:47;1010.74;;;32.43;61.87
37170;BME280;23062;13.952;100.608;2023-05-02T16:34:20;1010.77;;;32.44;61.94
37170;BME280;23062;13.952;100.608;2023-05-02T16:38:46;1010.74;;;32.44;61.89
37170;BME280;23062;13.952;100.608;2023-05-02T16:43:12;1010.77;;;32.45;61.77
37170;BME280;23062;13.952;100.608;2023-05-02T16:47:43;1010.77;;;32.43;61.67
37170;BME280;23062;13.952;100.608;2023-05-02T16:52:09;1010.82;;;32.42;61.73
37170;BME280;23062;13.952;100.608;2023-05-02T16:56:36;1010.83;;;32.44;61.72
37170;BME280;23062;13.952;100.608;2023-05-02T17:01:03;1010.70;;;32.47;61.84
37170;BME280;23062;13.952;100.608;2023-05-02T17:05:28;1010.60;;;32.47;61.76
37170;BME280;23062;13.952;100.608;2023-05-02T17:09:54;1010.57;;;32.47;61.67
37170;BME280;23062;13.952;100.608;2023-05-02T17:14:21;1010.51;;;32.44;61.73
37170;BME280;23062;13.952;100.608;2023-05-02T17:18:47;1010.54;;;32.46;61.68
37170;BME280;23062;13.952;100.608;2023-05-02T17:23:14;1010.51;;;32.47;61.71
37170;BME280;23062;13.952;100.608;2023-05-02T17:27:41;1010.48;;;32.47;61.70
37170;BME280;23062;13.952;100.608;2023-05-02T17:32:06;1010.49;;;32.45;61.61
37170;BME280;23062;13.952;100.608;2023-05-02T17:36:35;1010.45;;;32.47;61.74
37170;BME280;23062;13.952;100.608;2023-05-02T17:41:03;1010.39;;;32.47;62.28
37170;BME280;23062;13.952;100.608;2023-05-02T17:45:30;1010.38;;;32.46;61.92
37170;BME280;23062;13.952;100.608;2023-05-02T17:49:55;1010.32;;;32.47;61.98
37170;BME280;23062;13.952;100.608;2023-05-02T17:54:23;1010.34;;;32.47;62.10
37170;BME280;23062;13.952;100.608;2023-05-02T17:58:50;1010.32;;;32.47;62.18
37170;BME280;23062;13.952;100.608;2023-05-02T18:03:17;1010.22;;;32.46;62.06
37170;BME280;23062;13.952;100.608;2023-05-02T18:07:45;1010.21;;;32.44;62.18
37170;BME280;23062;13.952;100.608;2023-05-02T18:12:10;1010.14;;;32.46;62.63
37170;BME280;23062;13.952;100.608;2023-05-02T18:16:36;1010.14;;;32.45;62.39
37170;BME280;23062;13.952;100.608;2023-05-02T18:21:03;1010.04;;;32.47;62.49
37170;BME280;23062;13.952;100.608;2023-05-02T18:25:36;1010.07;;;32.44;62.59
37170;BME280;23062;13.952;100.608;2023-05-02T18:30:02;1010.06;;;32.45;62.58
37170;BME280;23062;13.952;100.608;2023-05-02T18:34:35;1009.98;;;32.44;62.51
37170;BME280;23062;13.952;100.608;2023-05-02T18:39:01;1009.91;;;32.45;62.66
37170;BME280;23062;13.952;100.608;2023-05-02T18:43:29;1009.84;;;32.44;62.79
37170;BME280;23062;13.952;100.608;2023-05-02T18:48:00;1009.87;;;32.44;62.74
37170;BME280;23062;13.952;100.608;2023-05-02T18:52:28;1009.83;;;32.44;62.81
37170;BME280;23062;13.952;100.608;2023-05-02T18:56:55;1009.78;;;32.44;62.83
37170;BME280;23062;13.952;100.608;2023-05-02T19:01:22;1009.74;;;32.42;62.76
37170;BME280;23062;13.952;100.608;2023-05-02T19:05:48;1009.75;;;32.43;62.89
37170;BME280;23062;13.952;100.608;2023-05-02T19:10:15;1009.67;;;32.42;63.08
37170;BME280;23062;13.952;100.608;2023-05-02T19:14:47;1009.65;;;32.41;63.15
37170;BME280;23062;13.952;100.608;2023-05-02T19:19:15;1009.67;;;32.40;62.92
37170;BME280;23062;13.952;100.608;2023-05-02T19:23:44;1009.68;;;32.40;62.85
37170;BME280;23062;13.952;100.608;2023-05-02T19:28:11;1009.68;;;32.40;62.85
37170;BME280;23062;13.952;100.608;2023-05-02T19:32:40;1009.65;;;32.40;63.13
37170;BME280;23062;13.952;100.608;2023-05-02T19:37:07;1009.62;;;32.38;63.18
37170;BME280;23062;13.952;100.608;2023-05-02T19:41:33;1009.62;;;32.40;63.09
37170;BME280;23062;13.952;100.608;2023-05-02T19:45:59;1009.62;;;32.39;63.44
37170;BME280;23062;13.952;100.608;2023-05-02T19:50:26;1009.56;;;32.37;63.24
37170;BME280;23062;13.952;100.608;2023-05-02T19:54:51;1009.54;;;32.37;63.33
37170;BME280;23062;13.952;100.608;2023-05-02T19:59:17;1009.52;;;32.34;63.07
37170;BME280;23062;13.952;100.608;2023-05-02T20:03:48;1009.52;;;32.38;63.34
37170;BME280;23062;13.952;100.608;2023-05-02T20:08:15;1009.64;;;32.39;63.33
37170;BME280;23062;13.952;100.608;2023-05-02T20:12:41;1009.58;;;32.39;63.67
37170;BME280;23062;13.952;100.608;2023-05-02T20:17:08;1009.63;;;32.37;63.67
37170;BME280;23062;13.952;100.608;2023-05-02T20:21:34;1009.62;;;32.36;63.71
37170;BME280;23062;13.952;100.608;2023-05-02T20:26:01;1009.62;;;32.34;63.70
37170;BME280;23062;13.952;100.608;2023-05-02T20:30:30;1009.63;;;32.31;63.80
37170;BME280;23062;13.952;100.608;2023-05-02T20:34:57;1009.66;;;32.30;63.82
37170;BME280;23062;13.952;100.608;2023-05-02T20:39:23;1009.79;;;32.30;63.76
37170;BME280;23062;13.952;100.608;2023-05-02T20:43:56;1009.87;;;32.29;63.77
37170;BME280;23062;13.952;100.608;2023-05-02T20:48:20;1009.87;;;32.28;63.91
37170;BME280;23062;13.952;100.608;2023-05-02T20:52:46;1009.84;;;32.27;63.78
37170;BME280;23062;13.952;100.608;2023-05-02T20:57:12;1009.85;;;32.24;64.02
37170;BME280;23062;13.952;100.608;2023-05-02T21:01:40;1009.84;;;32.23;64.00
37170;BME280;23062;13.952;100.608;2023-05-02T21:06:09;1009.87;;;32.22;64.02
37170;BME280;23062;13.952;100.608;2023-05-02T21:10:38;1009.86;;;32.24;64.03
37170;BME280;23062;13.952;100.608;2023-05-02T21:15:08;1009.85;;;32.21;64.17
37170;BME280;23062;13.952;100.608;2023-05-02T21:19:34;1009.91;;;32.21;64.07
37170;BME280;23062;13.952;100.608;2023-05-02T21:24:05;1009.93;;;32.20;64.20
37170;BME280;23062;13.952;100.608;2023-05-02T21:28:32;1009.99;;;32.20;64.18
37170;BME280;23062;13.952;100.608;2023-05-02T21:32:57;1009.93;;;32.21;64.32
37170;BME280;23062;13.952;100.608;2023-05-02T21:37:23;1009.97;;;32.21;64.20
37170;BME280;23062;13.952;100.608;2023-05-02T21:41:49;1010.01;;;32.19;64.25
37170;BME280;23062;13.952;100.608;2023-05-02T21:46:18;1009.95;;;32.18;64.27
37170;BME280;23062;13.952;100.608;2023-05-02T21:50:51;1009.84;;;32.17;64.33
37170;BME280;23062;13.952;100.608;2023-05-02T21:55:17;1009.83;;;32.17;64.14
37170;BME280;23062;13.952;100.608;2023-05-02T21:59:44;1009.78;;;32.16;64.29
37170;BME280;23062;13.952;100.608;2023-05-02T22:04:12;1009.81;;;32.15;64.56
37170;BME280;23062;13.952;100.608;2023-05-02T22:08:41;1009.81;;;32.07;65.11
37170;BME280;23062;13.952;100.608;2023-05-02T22:13:13;1009.89;;;32.02;65.71
37170;BME280;23062;13.952;100.608;2023-05-02T22:17:42;1009.94;;;32.01;65.65
37170;BME280;23062;13.952;100.608;2023-05-02T22:22:14;1009.96;;;31.95;66.14
37170;BME280;23062;13.952;100.608;2023-05-02T22:26:39;1009.94;;;31.90;66.57
37170;BME280;23062;13.952;100.608;2023-05-02T22:31:05;1009.94;;;31.90;66.78
37170;BME280;23062;13.952;100.608;2023-05-02T22:35:39;1010.01;;;31.89;66.66
37170;BME280;23062;13.952;100.608;2023-05-02T22:40:06;1010.04;;;31.87;66.85
37170;BME280;23062;13.952;100.608;2023-05-02T22:44:33;1010.16;;;31.85;67.04
37170;BME280;23062;13.952;100.608;2023-05-02T22:48:58;1010.08;;;31.86;67.11
37170;BME280;23062;13.952;100.608;2023-05-02T22:53:27;1010.07;;;31.78;67.28
37170;BME280;23062;13.952;100.608;2023-05-02T22:57:53;1010.09;;;31.76;67.38
37170;BME280;23062;13.952;100.608;2023-05-02T23:02:19;1010.04;;;31.66;68.61
37170;BME280;23062;13.952;100.608;2023-05-02T23:06:45;1010.12;;;31.46;69.80
37170;BME280;23062;13.952;100.608;2023-05-02T23:11:12;1010.23;;;31.38;70.54
37170;BME280;23062;13.952;100.608;2023-05-02T23:15:42;1010.26;;;31.35;70.74
37170;BME280;23062;13.952;100.608;2023-05-02T23:20:07;1010.31;;;31.30;71.12
37170;BME280;23062;13.952;100.608;2023-05-02T23:24:34;1010.43;;;31.32;71.17
37170;BME280;23062;13.952;100.608;2023-05-02T23:29:01;1010.52;;;31.27;71.48